Univ of Ark at Fayetteville, Arkansas
Current Conditions -  °F | °C
As of 10:53 AM on Thursday 30 Oct 2014 (Local Time) from KFYV Reporting Station
Overcast Overcast  
Wind Chill: 63°   Ceiling: 9000
Heat Index: 63°   Visibility: 10mi
Dew Point: 42°   Wind: 13mph
Humidity: 46%   Direction: 220°SW
Pressure: 30.13"   Gusts: NA
Location:  35.9902°N, 94.083°W
Report Text: KFYV 301553Z 22011KT 10SM BKN090 OVC110 17/06 A3013 RMK AO2 SLP200 T01720056
Loading
Personal Weather Stations






























Interactive Weather Map
Tropical Storm Tracking
New forecast layout! Learn more

10-Day Weather Forecast

Advertisements
Track Severe Weather on mobile